createdAt,value
2023-02-28T00:01:30.811Z,98417.06
2023-02-28T00:03:59.817Z,98417.09
2023-02-28T00:06:28.505Z,98414.53
2023-02-28T00:08:56.759Z,98410.19
2023-02-28T00:11:25.340Z,98422.38
2023-02-28T00:13:55.021Z,98414.53
2023-02-28T00:16:24.577Z,98413.84
2023-02-28T00:18:53.320Z,98417.31
2023-02-28T00:21:22.107Z,98417.31
2023-02-28T00:23:50.390Z,98423.53
2023-02-28T00:26:21.576Z,98417.53
2023-02-28T00:28:50.663Z,98424.34
2023-02-28T00:31:20.162Z,98426.94
2023-02-28T00:33:49.980Z,98431.16
2023-02-28T00:36:18.037Z,98428.78
2023-02-28T00:38:46.156Z,98423.75
2023-02-28T00:41:14.259Z,98434.22
2023-02-28T00:43:42.526Z,98430.72
2023-02-28T00:46:12.830Z,98422.88
2023-02-28T00:48:42.358Z,98426.28
2023-02-28T00:51:10.467Z,98432.31
2023-02-28T00:53:38.657Z,98421.00
2023-02-28T00:56:07.491Z,98419.22
2023-02-28T00:58:35.650Z,98420.09
2023-02-28T01:01:03.941Z,98420.00
2023-02-28T01:03:32.928Z,98421.66
2023-02-28T01:06:02.446Z,98410.19
2023-02-28T01:08:30.574Z,98415.44
2023-02-28T01:10:58.777Z,98417.16
2023-02-28T01:13:26.927Z,98414.56
2023-02-28T01:15:57.406Z,98414.56
2023-02-28T01:18:26.911Z,98416.50
2023-02-28T01:20:55.260Z,98423.41
2023-02-28T01:23:26.288Z,98413.84
2023-02-28T01:25:54.993Z,98417.25
2023-02-28T01:28:23.125Z,98418.13
2023-02-28T01:30:53.119Z,98410.25
2023-02-28T01:33:21.364Z,98413.69
2023-02-28T01:40:34.074Z,98408.34
2023-02-28T01:43:02.387Z,98408.34
2023-02-28T01:45:31.888Z,98414.47
2023-02-28T01:48:04.349Z,98406.63
2023-02-28T01:50:42.166Z,98418.03
2023-02-28T01:53:15.279Z,98413.81
2023-02-28T01:55:49.378Z,98413.03
2023-02-28T01:58:18.136Z,98420.00
2023-02-28T02:00:47.611Z,98416.56
2023-02-28T02:03:20.383Z,98413.13
2023-02-28T02:05:49.248Z,98419.19
2023-02-28T02:08:21.390Z,98421.81
2023-02-28T02:10:55.183Z,98414.00
2023-02-28T02:13:46.899Z,98417.53
2023-02-28T02:16:25.959Z,98420.00
2023-02-28T02:18:57.096Z,98406.06
2023-02-28T02:21:49.362Z,98412.91
2023-02-28T02:24:50.469Z,98412.81
2023-02-28T02:27:41.672Z,98417.16
2023-02-28T02:30:36.966Z,98413.38
2023-02-28T02:33:39.470Z,98411.59
2023-02-28T02:36:16.275Z,98402.13
2023-02-28T02:38:51.050Z,98411.69
2023-02-28T02:41:24.573Z,98414.31
2023-02-28T02:43:56.973Z,98416.16
2023-02-28T02:46:31.810Z,98404.97
2023-02-28T02:49:04.305Z,98408.53
2023-02-28T02:51:36.037Z,98409.47
2023-02-28T02:54:08.253Z,98412.16
2023-02-28T02:56:38.313Z,98415.66
2023-02-28T02:59:11.725Z,98419.88
2023-02-28T03:01:42.921Z,98416.44
2023-02-28T03:04:14.063Z,98426.00
2023-02-28T03:06:44.204Z,98414.59
2023-02-28T03:09:12.357Z,98421.56
2023-02-28T03:11:43.808Z,98414.56
2023-02-28T03:14:28.298Z,98416.34
2023-02-28T03:17:20.124Z,98418.03
2023-02-28T03:19:56.994Z,98416.47
2023-02-28T03:22:50.767Z,98418.25
2023-02-28T03:25:24.358Z,98422.53
2023-02-28T03:28:03.001Z,98418.25
2023-02-28T03:30:38.358Z,98416.44
2023-02-28T03:33:11.228Z,98423.31
2023-02-28T03:35:44.224Z,98421.50
2023-02-28T03:38:20.629Z,98423.25
2023-02-28T03:40:53.410Z,98423.25
2023-02-28T03:43:28.964Z,98424.03
2023-02-28T03:45:58.604Z,98421.34
2023-02-28T03:48:33.184Z,98419.66
2023-02-28T03:51:03.235Z,98420.47
2023-02-28T03:53:37.418Z,98426.63
2023-02-28T03:56:11.801Z,98424.06
2023-02-28T03:58:49.212Z,98414.53
2023-02-28T04:01:23.422Z,98428.47
2023-02-28T04:03:52.708Z,98421.44
2023-02-28T04:06:23.127Z,98426.50
2023-02-28T04:08:52.918Z,98421.59
2023-02-28T04:11:25.157Z,98430.22
2023-02-28T04:13:53.376Z,98427.69
2023-02-28T04:16:34.487Z,98434.63
2023-02-28T04:19:06.155Z,98446.81
2023-02-28T04:21:36.762Z,98439.00
2023-02-28T04:24:07.373Z,98443.34
2023-02-28T04:26:37.278Z,98449.44
2023-02-28T04:29:08.292Z,98453.03
2023-02-28T04:31:36.860Z,98454.84
2023-02-28T04:34:05.846Z,98455.66
2023-02-28T04:36:34.221Z,98453.91
2023-02-28T04:39:02.338Z,98450.47
2023-02-28T04:41:32.961Z,98459.06
2023-02-28T04:44:01.567Z,98458.25
2023-02-28T04:46:29.815Z,98455.59
2023-02-28T04:48:58.081Z,98449.56
2023-02-28T04:51:26.240Z,98462.53
2023-02-28T04:53:55.022Z,98462.53
2023-02-28T04:56:23.829Z,98454.66
2023-02-28T04:58:54.218Z,98459.88
2023-02-28T05:01:25.400Z,98457.19
2023-02-28T05:03:55.210Z,98451.84
2023-02-28T05:06:25.334Z,98442.25
2023-02-28T05:08:53.828Z,98447.47
2023-02-28T05:11:24.666Z,98455.28
2023-02-28T05:13:55.185Z,98447.44
2023-02-28T05:16:23.812Z,98442.16
2023-02-28T05:18:54.901Z,98447.47
2023-02-28T05:21:30.241Z,98446.56
2023-02-28T05:24:00.045Z,98449.25
2023-02-28T05:26:28.957Z,98452.03
2023-02-28T05:28:58.818Z,98452.91
2023-02-28T05:31:27.273Z,98457.16
2023-02-28T05:33:55.680Z,98462.41
2023-02-28T05:36:24.058Z,98457.16
2023-02-28T05:38:52.994Z,98463.34
2023-02-28T05:41:22.120Z,98460.81
2023-02-28T05:43:50.796Z,98464.41
2023-02-28T05:46:20.250Z,98463.50
2023-02-28T05:48:50.235Z,98473.16
2023-02-28T05:51:19.044Z,98474.03
2023-02-28T05:53:47.222Z,98463.63
2023-02-28T05:56:15.398Z,98479.25
2023-02-28T05:58:43.633Z,98480.13
2023-02-28T06:01:35.396Z,98482.66
2023-02-28T06:04:05.022Z,98487.81
2023-02-28T06:06:36.853Z,98486.06
2023-02-28T06:09:05.768Z,98492.91
2023-02-28T06:11:34.408Z,98488.47
2023-02-28T06:14:03.685Z,98495.53
2023-02-28T06:16:35.620Z,98498.19
2023-02-28T06:19:06.034Z,98501.72
2023-02-28T06:21:34.245Z,98506.03
2023-02-28T06:24:03.023Z,98509.50
2023-02-28T06:26:31.580Z,98502.63
2023-02-28T06:28:59.734Z,98513.97
2023-02-28T06:31:30.145Z,98518.31
2023-02-28T06:34:00.104Z,98516.59
2023-02-28T06:36:28.239Z,98524.38
2023-02-28T06:38:57.225Z,98522.66
2023-02-28T06:41:26.491Z,98526.84
2023-02-28T06:43:55.662Z,98528.63
2023-02-28T06:46:24.405Z,98534.72
2023-02-28T06:48:52.539Z,98529.50
2023-02-28T06:51:23.442Z,98539.00
2023-02-28T06:53:51.640Z,98540.75
2023-02-28T06:56:21.330Z,98540.75
2023-02-28T06:58:50.571Z,98533.66
2023-02-28T07:01:20.074Z,98547.59
2023-02-28T07:03:53.159Z,98545.09
2023-02-28T07:06:23.590Z,98539.88
2023-02-28T07:08:53.053Z,98550.31
2023-02-28T07:11:22.382Z,98539.00
2023-02-28T07:13:50.494Z,98541.53
2023-02-28T07:16:18.764Z,98545.03
2023-02-28T07:18:46.905Z,98542.44
2023-02-28T07:21:15.257Z,98552.78
2023-02-28T07:23:44.823Z,98546.78
2023-02-28T07:26:16.477Z,98546.75
2023-02-28T07:28:48.180Z,98545.84
2023-02-28T07:31:18.160Z,98545.75
2023-02-28T07:33:46.340Z,98556.25
2023-02-28T07:36:18.137Z,98554.53
2023-02-28T07:38:49.214Z,98555.34
2023-02-28T07:41:17.868Z,98557.97
2023-02-28T07:43:46.517Z,98555.34
2023-02-28T07:46:17.254Z,98568.38
2023-02-28T07:48:46.167Z,98567.47
2023-02-28T07:51:15.455Z,98558.69
2023-02-28T07:53:43.628Z,98567.50
2023-02-28T07:56:13.161Z,98570.91
2023-02-28T07:58:41.276Z,98562.97
2023-02-28T08:01:10.883Z,98560.28
2023-02-28T08:03:40.344Z,98570.56
2023-02-28T08:06:17.010Z,98569.75
2023-02-28T08:08:45.523Z,98568.97
2023-02-28T08:11:15.272Z,98580.34
2023-02-28T08:13:45.006Z,98577.69
2023-02-28T08:16:16.530Z,98572.44
2023-02-28T08:18:44.854Z,98578.50
2023-02-28T08:21:13.625Z,98575.00
2023-02-28T08:23:42.047Z,98576.59
2023-02-28T08:26:10.357Z,98579.22
2023-02-28T08:28:40.559Z,98577.44
2023-02-28T08:31:13.371Z,98577.38
2023-02-28T08:33:42.196Z,98575.47
2023-02-28T08:36:11.269Z,98573.69
2023-02-28T08:38:40.046Z,98573.81
2023-02-28T08:41:10.284Z,98578.13
2023-02-28T08:43:40.035Z,98577.19
2023-02-28T08:46:09.437Z,98583.31
2023-02-28T08:48:39.705Z,98576.16
2023-02-28T08:51:10.934Z,98569.25
2023-02-28T08:53:40.336Z,98577.91
2023-02-28T08:56:10.638Z,98578.69
2023-02-28T08:58:40.548Z,98582.16
2023-02-28T09:01:14.410Z,98582.19
2023-02-28T09:03:43.671Z,98586.50
2023-02-28T09:06:12.783Z,98580.25
2023-02-28T09:08:41.679Z,98588.16
2023-02-28T09:11:11.196Z,98580.31
2023-02-28T09:13:41.734Z,98578.59
2023-02-28T09:16:12.692Z,98582.13
2023-02-28T09:18:41.128Z,98583.81
2023-02-28T09:21:11.454Z,98583.78
2023-02-28T09:23:40.156Z,98584.47
2023-02-28T09:26:09.178Z,98593.78
2023-02-28T09:28:37.333Z,98585.19
2023-02-28T09:31:06.970Z,98580.13
2023-02-28T09:33:36.262Z,98593.81
2023-02-28T09:36:06.026Z,98592.13
2023-02-28T09:38:34.169Z,98594.75
2023-02-28T09:41:05.233Z,98591.38
2023-02-28T09:43:38.236Z,98594.56
2023-02-28T09:46:19.727Z,98594.56
2023-02-28T09:48:50.556Z,98593.47
2023-02-28T09:51:32.506Z,98593.78
2023-02-28T09:54:02.261Z,98586.78
2023-02-28T09:56:35.498Z,98593.56
2023-02-28T09:59:09.075Z,98589.94
2023-02-28T10:01:46.174Z,98587.03
2023-02-28T10:04:26.205Z,98588.06
2023-02-28T10:06:55.434Z,98584.09
2023-02-28T10:09:27.685Z,98588.31
2023-02-28T10:12:00.127Z,98589.00
2023-02-28T10:14:31.282Z,98577.59
2023-02-28T10:17:04.087Z,98581.31
2023-02-28T10:19:37.232Z,98569.63
2023-02-28T10:22:11.197Z,98577.38
2023-02-28T10:24:42.696Z,98574.75
2023-02-28T10:27:17.499Z,98573.22
2023-02-28T10:29:47.584Z,98575.38
2023-02-28T10:32:19.980Z,98571.13
2023-02-28T10:34:54.860Z,98569.81
2023-02-28T10:37:23.273Z,98571.97
2023-02-28T10:39:51.944Z,98567.78
2023-02-28T10:42:27.289Z,98568.28
2023-02-28T10:45:14.358Z,98567.56
2023-02-28T10:47:55.051Z,98564.75
2023-02-28T10:50:34.657Z,98560.09
2023-02-28T10:53:27.160Z,98560.94
2023-02-28T10:56:00.643Z,98564.31
2023-02-28T10:58:31.693Z,98554.13
2023-02-28T11:01:01.243Z,98556.34
2023-02-28T11:03:36.368Z,98556.75
2023-02-28T11:06:10.227Z,98543.78
2023-02-28T11:08:47.857Z,98555.31
2023-02-28T11:11:17.961Z,98541.66
2023-02-28T11:13:48.060Z,98544.69
2023-02-28T11:16:18.097Z,98531.63
2023-02-28T11:18:51.162Z,98534.00
2023-02-28T11:21:24.532Z,98532.28
2023-02-28T11:23:57.450Z,98536.19
2023-02-28T11:26:40.055Z,98523.19
2023-02-28T11:29:18.187Z,98524.31
2023-02-28T11:32:02.659Z,98518.25
2023-02-28T11:34:33.139Z,98516.16
2023-02-28T11:37:05.918Z,98514.75
2023-02-28T11:39:35.450Z,98504.50
2023-02-28T11:42:29.448Z,98516.06
2023-02-28T11:45:12.400Z,98511.91
2023-02-28T11:47:49.699Z,98510.84
2023-02-28T11:50:44.155Z,98512.69
2023-02-28T11:53:24.038Z,98506.44
2023-02-28T11:55:56.961Z,98504.50
2023-02-28T11:58:49.200Z,98504.47
2023-02-28T12:01:30.642Z,98500.13
2023-02-28T12:04:14.438Z,98492.69
2023-02-28T12:06:51.598Z,98494.94
2023-02-28T12:09:45.311Z,98488.31
2023-02-28T12:12:28.204Z,98492.34
2023-02-28T12:15:21.166Z,98486.41
2023-02-28T12:18:00.258Z,98485.75
2023-02-28T12:20:35.612Z,98490.63
2023-02-28T12:23:24.106Z,98485.28
2023-02-28T12:26:05.043Z,98477.50
2023-02-28T12:28:36.642Z,98476.34
2023-02-28T12:31:16.701Z,98472.50
2023-02-28T12:33:48.386Z,98476.56
2023-02-28T12:36:20.448Z,98470.09
2023-02-28T12:38:55.139Z,98451.47
2023-02-28T12:41:31.068Z,98473.19
2023-02-28T12:44:04.324Z,98465.84
2023-02-28T12:46:36.086Z,98459.16
2023-02-28T12:49:10.741Z,98459.16
2023-02-28T12:51:39.879Z,98461.34
2023-02-28T12:54:18.871Z,98454.91
2023-02-28T12:56:55.914Z,98447.84
2023-02-28T12:59:29.791Z,98454.38
2023-02-28T13:11:41.418Z,98451.38
2023-02-28T13:14:32.228Z,98449.91
2023-02-28T13:17:12.466Z,98441.91
2023-02-28T13:19:43.858Z,98435.44
2023-02-28T13:22:19.978Z,98434.50
2023-02-28T13:24:51.040Z,98439.41
2023-02-28T13:27:34.076Z,98428.84
2023-02-28T13:30:03.650Z,98445.66
2023-02-28T13:32:40.303Z,98438.28
2023-02-28T13:35:41.391Z,98441.66
2023-02-28T13:38:25.719Z,98429.06
2023-02-28T13:40:54.448Z,98432.28
2023-02-28T13:44:04.489Z,98426.78
2023-02-28T13:46:33.475Z,98419.56
2023-02-28T13:49:29.386Z,98429.75
2023-02-28T13:52:12.435Z,98418.53
2023-02-28T13:54:53.013Z,98423.81
2023-02-28T13:57:34.673Z,98414.91
2023-02-28T14:00:22.006Z,98421.19
2023-02-28T14:03:13.205Z,98413.97
2023-02-28T14:05:42.390Z,98408.00
2023-02-28T14:08:18.937Z,98403.53
2023-02-28T14:10:49.913Z,98397.63
2023-02-28T14:13:46.062Z,98385.53
2023-02-28T14:16:19.147Z,98390.41
2023-02-28T14:18:53.480Z,98387.13
2023-02-28T14:21:30.087Z,98393.59
2023-02-28T14:24:38.177Z,98386.09
2023-02-28T14:27:25.043Z,98370.69
2023-02-28T14:30:37.741Z,98371.59
2023-02-28T14:37:35.532Z,98374.31
2023-02-28T14:40:05.984Z,98374.97
2023-02-28T14:42:36.408Z,98374.28
2023-02-28T14:45:05.374Z,98373.53
2023-02-28T14:47:35.916Z,98376.50
2023-02-28T14:50:06.259Z,98384.25
2023-02-28T14:52:36.817Z,98385.59
2023-02-28T14:55:08.291Z,98386.22
2023-02-28T14:57:41.548Z,98378.28
2023-02-28T15:00:17.256Z,98380.91
2023-02-28T15:02:45.741Z,98384.41
2023-02-28T15:05:26.633Z,98380.41
2023-02-28T15:08:12.738Z,98380.56
2023-02-28T15:10:44.074Z,98376.56
2023-02-28T15:13:15.975Z,98374.34
2023-02-28T15:16:05.272Z,98378.38
2023-02-28T15:18:43.896Z,98373.47
2023-02-28T15:21:17.799Z,98387.06
2023-02-28T15:23:53.348Z,98388.84
2023-02-28T15:26:24.705Z,98392.69
2023-02-28T15:28:55.225Z,98386.03
2023-02-28T15:31:28.388Z,98383.72
2023-02-28T15:33:58.437Z,98396.44
2023-02-28T15:36:30.297Z,98398.22
2023-02-28T15:39:14.239Z,98414.50
2023-02-28T15:41:43.965Z,98397.13
2023-02-28T15:44:30.801Z,98405.22
2023-02-28T15:47:04.746Z,98397.69
2023-02-28T15:49:44.955Z,98400.25
2023-02-28T15:52:18.161Z,98396.22
2023-02-28T15:54:49.333Z,98396.69
2023-02-28T15:57:22.737Z,98393.25
2023-02-28T15:59:58.156Z,98397.56
2023-02-28T16:02:33.917Z,98394.94
2023-02-28T16:05:28.842Z,98393.25
2023-02-28T16:07:58.523Z,98401.25
2023-02-28T16:10:30.643Z,98398.34
2023-02-28T16:13:00.201Z,98400.34
2023-02-28T16:15:30.534Z,98397.03
2023-02-28T16:18:00.181Z,98408.50
2023-02-28T16:20:30.768Z,98401.72
2023-02-28T16:23:02.423Z,98402.94
2023-02-28T16:25:37.727Z,98399.56
2023-02-28T16:28:06.717Z,98398.06
2023-02-28T16:30:35.600Z,98406.91
2023-02-28T16:33:03.806Z,98402.72
2023-02-28T16:35:32.465Z,98403.97
2023-02-28T16:38:01.001Z,98404.22
2023-02-28T16:40:31.026Z,98407.06
2023-02-28T16:43:03.200Z,98403.00
2023-02-28T16:45:31.960Z,98414.59
2023-02-28T16:48:00.625Z,98424.22
2023-02-28T16:50:33.695Z,98426.06
2023-02-28T16:53:02.302Z,98426.31
2023-02-28T16:55:30.505Z,98429.03
2023-02-28T16:58:02.161Z,98440.56
2023-02-28T17:00:32.820Z,98447.59
2023-02-28T17:03:06.479Z,98442.38
2023-02-28T17:05:40.727Z,98444.34
2023-02-28T17:08:08.967Z,98432.19
2023-02-28T17:10:38.225Z,98444.25
2023-02-28T17:13:14.926Z,98445.88
2023-02-28T17:15:47.784Z,98447.59
2023-02-28T17:18:20.226Z,98452.84
2023-02-28T17:20:49.543Z,98452.06
2023-02-28T17:23:19.090Z,98455.47
2023-02-28T17:25:57.482Z,98453.56
2023-02-28T17:28:28.584Z,98451.75
2023-02-28T17:30:57.641Z,98455.28
2023-02-28T17:33:27.399Z,98460.56
2023-02-28T17:35:57.019Z,98462.34
2023-02-28T17:38:26.100Z,98457.88
2023-02-28T17:40:58.322Z,98467.41
2023-02-28T17:43:30.071Z,98453.47
2023-02-28T17:45:59.499Z,98453.50
2023-02-28T17:48:29.328Z,98455.31
2023-02-28T17:50:59.065Z,98459.56
2023-02-28T17:53:28.684Z,98456.84
2023-02-28T17:55:59.527Z,98458.38
2023-02-28T17:58:32.206Z,98452.25
2023-02-28T18:01:01.775Z,98466.91
2023-02-28T18:03:33.030Z,98455.47
2023-02-28T18:06:04.864Z,98458.69
2023-02-28T18:08:36.421Z,98465.75
2023-02-28T18:11:05.447Z,98469.31
2023-02-28T18:13:35.922Z,98463.22
2023-02-28T18:16:04.837Z,98464.22
2023-02-28T18:18:33.784Z,98473.19
2023-02-28T18:21:03.345Z,98475.72
2023-02-28T18:23:32.700Z,98478.38
2023-02-28T18:26:04.221Z,98473.09
2023-02-28T18:28:36.763Z,98473.16
2023-02-28T18:31:09.533Z,98471.34
2023-02-28T18:33:38.728Z,98471.41
2023-02-28T18:36:09.398Z,98480.94
2023-02-28T18:38:39.244Z,98485.25
2023-02-28T18:41:09.382Z,98483.50
2023-02-28T18:43:40.952Z,98494.88
2023-02-28T18:46:18.134Z,98492.38
2023-02-28T18:48:49.928Z,98492.28
2023-02-28T18:51:22.039Z,98502.75
2023-02-28T18:53:51.732Z,98494.16
2023-02-28T18:56:23.614Z,98500.25
2023-02-28T18:58:55.783Z,98493.28
2023-02-28T19:01:33.223Z,98497.69
2023-02-28T19:04:04.990Z,98497.69
2023-02-28T19:06:35.946Z,98498.63
2023-02-28T19:09:06.991Z,98506.47
2023-02-28T19:11:37.628Z,98496.06
2023-02-28T19:14:09.994Z,98504.78
2023-02-28T19:16:40.932Z,98503.06
2023-02-28T19:19:10.299Z,98505.69
2023-02-28T19:21:39.665Z,98505.72
2023-02-28T19:24:09.571Z,98498.72
2023-02-28T19:26:39.211Z,98494.38
2023-02-28T19:29:10.456Z,98505.69
2023-02-28T19:31:39.960Z,98508.28
2023-02-28T19:34:10.637Z,98506.53
2023-02-28T19:36:41.531Z,98497.84
2023-02-28T19:39:11.321Z,98503.00
2023-02-28T19:41:40.749Z,98512.56
2023-02-28T19:44:12.351Z,98501.28
2023-02-28T19:46:45.052Z,98505.69
2023-02-28T19:49:13.946Z,98500.50
2023-02-28T19:51:48.979Z,98513.56
2023-02-28T19:54:18.830Z,98516.16
2023-02-28T19:56:49.218Z,98508.31
2023-02-28T19:59:21.953Z,98509.19
2023-02-28T20:02:00.418Z,98509.09
2023-02-28T20:04:30.316Z,98509.09
2023-02-28T20:07:00.419Z,98499.59
2023-02-28T20:09:33.680Z,98503.91
2023-02-28T20:12:17.877Z,98499.50
2023-02-28T20:14:56.442Z,98501.34
2023-02-28T20:17:35.274Z,98497.88
2023-02-28T20:20:05.662Z,98490.88
2023-02-28T20:22:38.226Z,98493.50
2023-02-28T20:25:12.088Z,98494.41
2023-02-28T20:27:42.098Z,98489.25
2023-02-28T20:30:14.199Z,98494.56
2023-02-28T20:32:46.363Z,98496.28
2023-02-28T20:35:18.908Z,98495.44
2023-02-28T20:37:48.679Z,98500.63
2023-02-28T20:40:18.469Z,98501.56
2023-02-28T20:42:51.029Z,98496.19
2023-02-28T20:45:22.700Z,98493.47
2023-02-28T20:47:55.311Z,98488.28
2023-02-28T20:50:28.380Z,98489.13
2023-02-28T20:52:59.674Z,98483.09
2023-02-28T20:55:29.701Z,98482.22
2023-02-28T20:58:00.266Z,98482.16
2023-02-28T21:00:30.616Z,98483.88
2023-02-28T21:03:00.799Z,98482.22
2023-02-28T21:05:30.487Z,98493.69
2023-02-28T21:07:59.169Z,98485.91
2023-02-28T21:10:27.713Z,98484.13
2023-02-28T21:12:57.975Z,98485.88
2023-02-28T21:15:26.810Z,98482.38
2023-02-28T21:17:56.925Z,98486.59
2023-02-28T21:20:25.449Z,98476.06
2023-02-28T21:22:53.914Z,98475.19
2023-02-28T21:25:22.979Z,98478.75
2023-02-28T21:27:55.535Z,98474.34
2023-02-28T21:30:24.248Z,98472.50
2023-02-28T21:32:53.217Z,98469.06
2023-02-28T21:35:26.014Z,98463.00
2023-02-28T21:37:54.196Z,98465.59
2023-02-28T21:40:22.703Z,98468.19
2023-02-28T21:42:50.863Z,98462.09
2023-02-28T21:45:19.068Z,98454.19
2023-02-28T21:47:47.308Z,98457.84
2023-02-28T21:50:15.863Z,98459.50
2023-02-28T21:52:46.234Z,98460.50
2023-02-28T21:55:14.484Z,98463.13
2023-02-28T21:57:42.670Z,98463.16
2023-02-28T22:00:12.240Z,98469.31
2023-02-28T22:02:40.359Z,98462.34
2023-02-28T22:05:08.929Z,98461.44
2023-02-28T22:07:37.153Z,98473.63
2023-02-28T22:10:07.639Z,98471.13
2023-02-28T22:12:36.079Z,98469.28
2023-02-28T22:15:04.304Z,98468.44
2023-02-28T22:17:34.807Z,98463.16
2023-02-28T22:20:02.968Z,98464.00
2023-02-28T22:22:31.157Z,98467.31
2023-02-28T22:24:59.236Z,98474.19
2023-02-28T22:27:28.804Z,98460.34
2023-02-28T22:29:57.933Z,98466.38
2023-02-28T22:32:26.125Z,98457.59
2023-02-28T22:34:54.448Z,98454.97
2023-02-28T22:37:22.617Z,98455.78
2023-02-28T22:39:50.737Z,98451.47
2023-02-28T22:42:18.865Z,98449.97
2023-02-28T22:44:50.976Z,98447.25
2023-02-28T22:47:19.486Z,98435.06
2023-02-28T22:49:47.642Z,98435.06
2023-02-28T22:52:15.864Z,98433.41
2023-02-28T22:54:43.969Z,98437.66
2023-02-28T22:57:12.652Z,98430.66
2023-02-28T22:59:40.781Z,98434.22
2023-02-28T23:02:10.321Z,98429.91
2023-02-28T23:04:38.499Z,98443.91
2023-02-28T23:07:06.771Z,98446.66
2023-02-28T23:09:34.945Z,98445.66
2023-02-28T23:12:03.075Z,98435.03
2023-02-28T23:14:31.215Z,98446.34
2023-02-28T23:16:59.367Z,98434.22
2023-02-28T23:19:31.681Z,98444.66
2023-02-28T23:22:00.840Z,98448.91
2023-02-28T23:24:31.468Z,98433.31
2023-02-28T23:27:02.196Z,98433.50
2023-02-28T23:29:30.644Z,98443.19
2023-02-28T23:31:59.027Z,98452.97
2023-02-28T23:34:30.555Z,98456.53
2023-02-28T23:37:00.364Z,98461.78
2023-02-28T23:39:32.429Z,98464.38
2023-02-28T23:42:01.977Z,98456.47
2023-02-28T23:44:30.209Z,98455.69
2023-02-28T23:46:58.346Z,98454.81
2023-02-28T23:49:26.475Z,98438.06
2023-02-28T23:51:56.186Z,98439.78
2023-02-28T23:54:24.713Z,98437.19
2023-02-28T23:56:52.931Z,98440.84
2023-02-28T23:59:21.461Z,98439.22
